Accueil
METAR-TAF:

METAR-TAF

Aéroports :

Aéroport régional Les Éplatures

La Chaux-de-Fonds, Suisse

latitude: 47-05-03N, longitude: 006-47-37E, altitude: 1027 m

Observation

Le bulletin a été fait il y a 28 minutes, à 03:50 UTC
Vent calme
Température -5°C
Humidité 93%
Pression 1020 hPa
Visibilité: 7000 m
Ciel couvert à une hauteur de 300 ft

METAR: LSGC 300350Z AUTO 00000KT 7000 OVC003 M05/M06 Q1020

Heure: 05:18 (04:18 UTC)

Prévision

Le bulletin a été fait il y a 13 heures et 53 minutes, à 14:25 UTC
Prévision valable du 29 à 15 UTC au 29 à 24 UTC
Vent 5 kt de est/nord-est
Visibilité 10 km ou plus
pas de nuages en-dessous de 1500 mètres et pas de cumulonimbus.
Probabilité 40% :
Temporairement
du 29 à 18 UTC au 29 à 24 UTC
Visibilité: 3500 m
Ciel couvert à une hauteur de 800 ft
brume

TAF: LSGC 291425Z 2915/2924 06005KT CAVOK PROB40 TEMPO 2918/2924 3500 BR OVC008

Observations et prévisions météorologiques de plus de 4000 aéroports (messages METAR et TAF).

Les stations disponibles sont représentées par des disques jaunes et rouges sur la carte.

Passer la souris dessus pour voir le nom de la station.

Cliquer dessus pour voir les observations et prévisions météorologiques.

Pour changer de carte: cliquez sur les boutons verts avec une croix noire pour zoomer, sur le bouton vert avec un tiret pour effectuer un zoom arrière, ou sur les flèches vertes pour les cartes adjacentes.


METAR-TAF: